Time;durP1;ratioP1;P1;durP2;ratioP2;P2;SDS_P1;SDS_P2;PMS_P1;PMS_P2;Temp;Humidity;BMP_temperature;BMP_pressure;BME280_temperature;BME280_humidity;BME280_pressure;Samples;Min_cycle;Max_cycle;Signal;HPM_P1;HPM_P2
2024/03/21 00:02:20;;;;;;;;;;;;;;;;;;4876103;29;19947;-57
2024/03/21 00:04:46;;;;;;;;;;;;;;;;;;4874455;29;20002;-58
2024/03/21 00:07:12;;;;;;;;;;;;;;;;;;4878831;29;20023;-58
2024/03/21 00:09:38;;;;;;;;;;;;;;;;;;4879031;29;19912;-57
2024/03/21 00:12:05;;;;;;;;;;;;;;;;;;4874663;29;19964;-57
2024/03/21 00:14:31;;;;;;;;;;;;;;;;;;4880813;29;19915;-58
2024/03/21 00:16:56;;;;;;;;;;;;;;;;;;4879480;29;20257;-57
2024/03/21 00:19:22;;;;;;;;;;;;;;;;;;4876904;29;20372;-57
2024/03/21 00:21:50;;;;;;;;;;;;;;;;;;4881326;29;20009;-58
2024/03/21 00:24:16;;;;;;;;;;;;;;;;;;4881799;29;20363;-57
2024/03/21 00:26:42;;;;;;;;;;;;;;;;;;4879709;29;19918;-58
2024/03/21 00:29:08;;;;;;;;;;;;;;;;;;4876446;29;20372;-58
2024/03/21 00:31:35;;;;;;;;;;;;;;;;;;4881843;29;20555;-57
2024/03/21 00:34:00;;;;;;;;;;;;;;;;;;4876560;29;19927;-57
2024/03/21 00:36:26;;;;;;;;;;;;;;;;;;4877053;29;20145;-58
2024/03/21 00:38:52;;;;;;;;;;;;;;;;;;4880480;29;20398;-57
2024/03/21 00:41:19;;;;;;;;;;;;;;;;;;4887495;29;19918;-58
2024/03/21 00:43:45;;;;;;;;;;;;;;;;;;4876570;29;19919;-54
2024/03/21 00:46:11;;;;;;;;;;;;;;;;;;4877447;29;20038;-52
2024/03/21 00:48:37;;;;;;;;;;;;;;;;;;4876637;29;19954;-51
2024/03/21 00:51:03;;;;;;;;;;;;;;;;;;4882210;29;20419;-51
2024/03/21 00:53:29;;;;;;;;;;;;;;;;;;4881114;29;20743;-52
2024/03/21 00:55:55;;;;;;;;;;;;;;;;;;4876925;29;19972;-58
2024/03/21 00:58:21;;;;;;;;;;;;;;;;;;4876293;29;19912;-58
2024/03/21 01:00:47;;;;;;;;;;;;;;;;;;4878928;29;19977;-58
2024/03/21 01:03:13;;;;;;;;;;;;;;;;;;4877328;29;20359;-58
2024/03/21 01:05:39;;;;;;;;;;;;;;;;;;4876574;29;19920;-59
2024/03/21 01:08:05;;;;;;;;;;;;;;;;;;4874393;29;19922;-56
2024/03/21 01:10:31;;;;;;;;;;;;;;;;;;4878225;29;20010;-58
2024/03/21 01:12:57;;;;;;;;;;;;;;;;;;4876543;29;19958;-58
2024/03/21 01:15:23;;;;;;;;;;;;;;;;;;4876805;29;19948;-56
2024/03/21 01:17:49;;;;;;;;;;;;;;;;;;4876756;29;19961;-58
2024/03/21 01:20:15;;;;;;;;;;;;;;;;;;4882866;29;19915;-58
2024/03/21 01:22:41;;;;;;;;;;;;;;;;;;4874035;29;19920;-57
2024/03/21 01:25:07;;;;;;;;;;;;;;;;;;4879619;29;19958;-57
2024/03/21 01:27:33;;;;;;;;;;;;;;;;;;4877547;29;19911;-53
2024/03/21 01:29:59;;;;;;;;;;;;;;;;;;4879435;29;19962;-52
2024/03/21 01:32:25;;;;;;;;;;;;;;;;;;4875963;29;20007;-52
2024/03/21 01:34:50;;;;;;;;;;;;;;;;;;4876004;29;19962;-53
2024/03/21 01:37:17;;;;;;;;;;;;;;;;;;4874486;29;20470;-53
2024/03/21 01:39:42;;;;;;;;;;;;;;;;;;4872401;29;20018;-53
2024/03/21 01:42:08;;;;;;;;;;;;;;;;;;4877858;29;20006;-51
2024/03/21 01:44:34;;;;;;;;;;;;;;;;;;4877184;29;20034;-53
2024/03/21 01:47:00;;;;;;;;;;;;;;;;;;4877521;29;20671;-53
2024/03/21 01:49:26;;;;;;;;;;;;;;;;;;4879286;29;19963;-53
2024/03/21 01:51:52;;;;;;;;;;;;;;;;;;4877064;29;20025;-52
2024/03/21 01:54:18;;;;;;;;;;;;;;;;;;4878054;29;19950;-50
2024/03/21 01:56:44;;;;;;;;;;;;;;;;;;4875458;29;19957;-54
2024/03/21 01:59:10;;;;;;;;;;;;;;;;;;4874557;29;19919;-53
2024/03/21 02:01:36;;;;;;;;;;;;;;;;;;4873745;29;19967;-53
2024/03/21 02:04:03;;;;;;;;;;;;;;;;;;4874494;29;19954;-54
2024/03/21 02:06:29;;;;;;;;;;;;;;;;;;4876850;29;19951;-58
2024/03/21 02:08:57;;;;;;;;;;;;;;;;;;4875613;29;19959;-58
2024/03/21 02:11:23;;;;;;;;;;;;;;;;;;4875984;29;19976;-58
2024/03/21 02:13:49;;;;;;;;;;;;;;;;;;4883814;29;20668;-58
2024/03/21 02:18:51;;;;;;;;;;;;;;;;;;3286663;26;19931;-87
2024/03/21 02:24:01;;;;;;;;;;;;;;;;;;4912380;29;19925;-87
2024/03/21 02:26:27;;;;;;;;;;;;;;;;;;4912608;29;19915;-87
2024/03/21 02:28:53;;;;;;;;;;;;;;;;;;4910351;29;19947;-87
2024/03/21 02:31:19;;;;;;;;;;;;;;;;;;4913355;29;19950;-87
2024/03/21 02:33:45;;;;;;;;;;;;;;;;;;4911093;29;20300;-87
2024/03/21 02:36:11;;;;;;;;;;;;;;;;;;4916920;29;19972;-86
2024/03/21 02:38:37;;;;;;;;;;;;;;;;;;4916695;29;20061;-86
2024/03/21 02:41:03;;;;;;;;;;;;;;;;;;4915780;29;19971;-86
2024/03/21 02:43:29;;;;;;;;;;;;;;;;;;4922573;29;19915;-86
2024/03/21 02:45:55;;;;;;;;;;;;;;;;;;4916477;29;20409;-86
2024/03/21 02:48:21;;;;;;;;;;;;;;;;;;4899206;29;20009;-86
2024/03/21 02:50:47;;;;;;;;;;;;;;;;;;4915677;29;19985;-86
2024/03/21 02:53:12;;;;;;;;;;;;;;;;;;4915708;29;19951;-86
2024/03/21 02:55:38;;;;;;;;;;;;;;;;;;4916189;29;19962;-86
2024/03/21 02:58:04;;;;;;;;;;;;;;;;;;4914260;29;20084;-86
2024/03/21 03:00:30;;;;;;;;;;;;;;;;;;4897690;29;19962;-86
2024/03/21 03:02:56;;;;;;;;;;;;;;;;;;4914747;29;20311;-86
2024/03/21 03:05:22;;;;;;;;;;;;;;;;;;4916776;29;19950;-87
2024/03/21 03:07:48;;;;;;;;;;;;;;;;;;4913620;29;20331;-86
2024/03/21 03:10:14;;;;;;;;;;;;;;;;;;4916706;29;20283;-86
2024/03/21 03:12:40;;;;;;;;;;;;;;;;;;4914421;29;19926;-86
2024/03/21 03:15:06;;;;;;;;;;;;;;;;;;4913804;29;20343;-86
2024/03/21 03:17:32;;;;;;;;;;;;;;;;;;4917793;29;20033;-86
2024/03/21 03:19:58;;;;;;;;;;;;;;;;;;4930221;29;20377;-86
2024/03/21 03:22:24;;;;;;;;;;;;;;;;;;4929919;29;20370;-86
2024/03/21 03:24:50;;;;;;;;;;;;;;;;;;4926382;29;19915;-86
2024/03/21 03:27:16;;;;;;;;;;;;;;;;;;4929185;29;19957;-87
2024/03/21 03:29:42;;;;;;;;;;;;;;;;;;4932370;29;19973;-86
2024/03/21 03:32:08;;;;;;;;;;;;;;;;;;4929978;29;20250;-85
2024/03/21 03:37:18;;;;;;;;;;;;;;;;;;4926415;29;20442;-87
2024/03/21 03:39:44;;;;;;;;;;;;;;;;;;4932608;29;19921;-87
2024/03/21 03:42:10;;;;;;;;;;;;;;;;;;4916256;29;19962;-86
2024/03/21 03:44:36;;;;;;;;;;;;;;;;;;4933911;29;19961;-87
2024/03/21 03:47:02;;;;;;;;;;;;;;;;;;4933809;29;20036;-86
2024/03/21 03:49:28;;;;;;;;;;;;;;;;;;4932619;29;19947;-86
2024/03/21 03:51:54;;;;;;;;;;;;;;;;;;4932819;29;19958;-87
2024/03/21 03:54:20;;;;;;;;;;;;;;;;;;4933117;29;19961;-86
2024/03/21 03:56:46;;;;;;;;;;;;;;;;;;4932232;29;20129;-87
2024/03/21 03:59:12;;;;;;;;;;;;;;;;;;4915354;29;19997;-86
2024/03/21 04:01:38;;;;;;;;;;;;;;;;;;4931926;29;19915;-86
2024/03/21 04:04:04;;;;;;;;;;;;;;;;;;4931948;29;19958;-87
2024/03/21 04:06:30;;;;;;;;;;;;;;;;;;4932241;29;19957;-87
2024/03/21 04:08:56;;;;;;;;;;;;;;;;;;4924571;29;19954;-87
2024/03/21 04:11:21;;;;;;;;;;;;;;;;;;4933568;29;20342;-87
2024/03/21 04:13:47;;;;;;;;;;;;;;;;;;4930964;29;19938;-88
2024/03/21 04:16:13;;;;;;;;;;;;;;;;;;4933909;29;19969;-87
2024/03/21 04:18:39;;;;;;;;;;;;;;;;;;4934978;29;19970;-87
2024/03/21 04:21:05;;;;;;;;;;;;;;;;;;4933227;29;19986;-88
2024/03/21 04:23:31;;;;;;;;;;;;;;;;;;4932540;29;20349;-88
2024/03/21 04:25:57;;;;;;;;;;;;;;;;;;4933753;29;19953;-87
2024/03/21 04:28:23;;;;;;;;;;;;;;;;;;4928395;29;20029;-88
2024/03/21 04:30:49;;;;;;;;;;;;;;;;;;4932484;29;19994;-87
2024/03/21 04:33:15;;;;;;;;;;;;;;;;;;4928696;29;19964;-87
2024/03/21 04:35:41;;;;;;;;;;;;;;;;;;4931568;29;19969;-87
2024/03/21 04:38:07;;;;;;;;;;;;;;;;;;4932441;29;20053;-88
2024/03/21 04:40:33;;;;;;;;;;;;;;;;;;4933070;29;19922;-85
2024/03/21 04:42:59;;;;;;;;;;;;;;;;;;4925308;29;20429;-85
2024/03/21 04:45:25;;;;;;;;;;;;;;;;;;4933053;29;20042;-83
2024/03/21 04:47:51;;;;;;;;;;;;;;;;;;4932405;29;19921;-84
2024/03/21 04:50:17;;;;;;;;;;;;;;;;;;4933830;29;19915;-83
2024/03/21 04:52:43;;;;;;;;;;;;;;;;;;4931332;29;19922;-84
2024/03/21 04:55:09;;;;;;;;;;;;;;;;;;4927964;29;19914;-84
2024/03/21 04:57:35;;;;;;;;;;;;;;;;;;4933372;29;20307;-84
2024/03/21 05:00:03;;;;;;;;;;;;;;;;;;4928010;29;19949;-84
2024/03/21 05:02:29;;;;;;;;;;;;;;;;;;4910865;29;19930;-84
2024/03/21 05:04:55;;;;;;;;;;;;;;;;;;4931192;29;20381;-83
2024/03/21 05:07:21;;;;;;;;;;;;;;;;;;4932611;29;20386;-85
2024/03/21 05:09:47;;;;;;;;;;;;;;;;;;4932962;29;20402;-84
2024/03/21 05:12:13;;;;;;;;;;;;;;;;;;4933003;29;19949;-83
2024/03/21 05:14:39;;;;;;;;;;;;;;;;;;4909505;29;19973;-83
2024/03/21 05:17:05;;;;;;;;;;;;;;;;;;4930124;29;19994;-84
2024/03/21 05:19:31;;;;;;;;;;;;;;;;;;4931470;29;20344;-84
2024/03/21 05:21:57;;;;;;;;;;;;;;;;;;4927172;29;19974;-84
2024/03/21 05:24:23;;;;;;;;;;;;;;;;;;4930067;29;19915;-85
2024/03/21 05:26:48;;;;;;;;;;;;;;;;;;4932529;29;19945;-86
2024/03/21 05:29:14;;;;;;;;;;;;;;;;;;4932135;29;19915;-85
2024/03/21 05:31:40;;;;;;;;;;;;;;;;;;4932740;29;20483;-84
2024/03/21 05:34:06;;;;;;;;;;;;;;;;;;4928744;29;20339;-84
2024/03/21 05:36:32;;;;;;;;;;;;;;;;;;4928577;29;19949;-85
2024/03/21 05:38:58;;;;;;;;;;;;;;;;;;4929183;29;19935;-86
2024/03/21 05:41:25;;;;;;;;;;;;;;;;;;4931768;29;20362;-86
2024/03/21 05:43:51;;;;;;;;;;;;;;;;;;4929952;29;19917;-85
2024/03/21 05:46:17;;;;;;;;;;;;;;;;;;4932129;29;19910;-83
2024/03/21 05:48:43;;;;;;;;;;;;;;;;;;4925088;29;19932;-90
2024/03/21 05:51:09;;;;;;;;;;;;;;;;;;4931645;29;20324;-89
2024/03/21 05:53:35;;;;;;;;;;;;;;;;;;4905135;29;19938;-89
2024/03/21 05:56:04;;;;;;;;;;;;;;;;;;4920368;29;20375;-89
2024/03/21 05:58:30;;;;;;;;;;;;;;;;;;4928193;29;19922;-89
2024/03/21 06:00:56;;;;;;;;;;;;;;;;;;4931115;29;20278;-90
2024/03/21 06:03:22;;;;;;;;;;;;;;;;;;4930635;29;20266;-89
2024/03/21 06:05:48;;;;;;;;;;;;;;;;;;4933039;29;20006;-89
2024/03/21 06:08:14;;;;;;;;;;;;;;;;;;4929134;29;19961;-89
2024/03/21 06:10:40;;;;;;;;;;;;;;;;;;4915935;29;20258;-88
2024/03/21 06:13:05;;;;;;;;;;;;;;;;;;4924672;29;19915;-88
2024/03/21 06:15:31;;;;;;;;;;;;;;;;;;4930902;29;19950;-89
2024/03/21 06:17:57;;;;;;;;;;;;;;;;;;4910611;29;19997;-89
2024/03/21 06:20:23;;;;;;;;;;;;;;;;;;4923691;29;20290;-89
2024/03/21 06:22:49;;;;;;;;;;;;;;;;;;4924545;29;19946;-87
2024/03/21 06:25:16;;;;;;;;;;;;;;;;;;4921199;29;20015;-88
2024/03/21 06:27:42;;;;;;;;;;;;;;;;;;4929799;29;20284;-87
2024/03/21 06:30:08;;;;;;;;;;;;;;;;;;4922547;29;20001;-87
2024/03/21 06:32:34;;;;;;;;;;;;;;;;;;4928749;29;19990;-88
2024/03/21 06:35:00;;;;;;;;;;;;;;;;;;4926690;29;19958;-87
2024/03/21 06:37:25;;;;;;;;;;;;;;;;;;4930094;29;19922;-87
2024/03/21 06:39:52;;;;;;;;;;;;;;;;;;4933296;29;19911;-87
2024/03/21 06:42:17;;;;;;;;;;;;;;;;;;4929103;29;20383;-88
2024/03/21 06:44:43;;;;;;;;;;;;;;;;;;4918863;29;20022;-88
2024/03/21 06:47:09;;;;;;;;;;;;;;;;;;4911197;29;19947;-87
2024/03/21 06:49:35;;;;;;;;;;;;;;;;;;4933436;29;20023;-88
2024/03/21 06:52:01;;;;;;;;;;;;;;;;;;4933638;29;19918;-88
2024/03/21 06:54:27;;;;;;;;;;;;;;;;;;4941628;29;19945;-87
2024/03/21 06:56:53;;;;;;;;;;;;;;;;;;4942200;29;19907;-88
2024/03/21 06:59:19;;;;;;;;;;;;;;;;;;4936425;29;19915;-87
2024/03/21 07:01:45;;;;;;;;;;;;;;;;;;4925546;29;20039;-86
2024/03/21 07:04:11;;;;;;;;;;;;;;;;;;4924784;29;19973;-85
2024/03/21 07:06:37;;;;;;;;;;;;;;;;;;4933546;29;19937;-85
2024/03/21 07:09:03;;;;;;;;;;;;;;;;;;4906522;29;20120;-85
2024/03/21 07:11:29;;;;;;;;;;;;;;;;;;4919139;29;19921;-86
2024/03/21 07:13:59;;;;;;;;;;;;;;;;;;4932552;29;19997;-86
2024/03/21 07:16:25;;;;;;;;;;;;;;;;;;4934728;29;20013;-85
2024/03/21 07:18:51;;;;;;;;;;;;;;;;;;4934222;29;20017;-85
2024/03/21 07:21:17;;;;;;;;;;;;;;;;;;4935562;29;20013;-84
2024/03/21 07:23:43;;;;;;;;;;;;;;;;;;4935686;29;20315;-87
2024/03/21 07:26:09;;;;;;;;;;;;;;;;;;4944846;29;19911;-85
2024/03/21 07:28:35;;;;;;;;;;;;;;;;;;4947421;29;19935;-85
2024/03/21 07:31:01;;;;;;;;;;;;;;;;;;4949817;28;19919;-85
2024/03/21 07:33:27;;;;;;;;;;;;;;;;;;4944123;29;19922;-87
2024/03/21 07:35:53;;;;;;;;;;;;;;;;;;4937319;29;19965;-86
2024/03/21 07:38:19;;;;;;;;;;;;;;;;;;4936688;29;19911;-87
2024/03/21 07:40:45;;;;;;;;;;;;;;;;;;4931380;29;20371;-88
2024/03/21 07:43:10;;;;;;;;;;;;;;;;;;4933414;29;19926;-86
2024/03/21 07:45:36;;;;;;;;;;;;;;;;;;4941677;29;20541;-85
2024/03/21 07:48:02;;;;;;;;;;;;;;;;;;4948094;29;19954;-87
2024/03/21 07:50:29;;;;;;;;;;;;;;;;;;4949446;29;19922;-86
2024/03/21 07:52:55;;;;;;;;;;;;;;;;;;4943038;29;19966;-87
2024/03/21 07:55:21;;;;;;;;;;;;;;;;;;4924556;29;19911;-86
2024/03/21 07:57:48;;;;;;;;;;;;;;;;;;4928417;29;19986;-86
2024/03/21 08:00:14;;;;;;;;;;;;;;;;;;4918492;29;19914;-86
2024/03/21 08:02:40;;;;;;;;;;;;;;;;;;4930204;29;19914;-86
2024/03/21 08:05:06;;;;;;;;;;;;;;;;;;4919175;29;19911;-86
2024/03/21 08:07:32;;;;;;;;;;;;;;;;;;4927820;29;19915;-87
2024/03/21 08:09:58;;;;;;;;;;;;;;;;;;4926812;29;19978;-86
2024/03/21 08:12:24;;;;;;;;;;;;;;;;;;4932021;29;19978;-87
2024/03/21 08:14:50;;;;;;;;;;;;;;;;;;4928442;29;19950;-86
2024/03/21 08:17:16;;;;;;;;;;;;;;;;;;4930979;29;19910;-86
2024/03/21 08:19:42;;;;;;;;;;;;;;;;;;4925568;29;20487;-86
2024/03/21 08:22:08;;;;;;;;;;;;;;;;;;4915581;29;20308;-87
2024/03/21 08:24:34;;;;;;;;;;;;;;;;;;4916205;29;20001;-87
2024/03/21 08:27:02;;;;;;;;;;;;;;;;;;4910261;29;20005;-86
2024/03/21 08:29:28;;;;;;;;;;;;;;;;;;4915895;29;19991;-86
2024/03/21 08:31:54;;;;;;;;;;;;;;;;;;4915439;29;19997;-87
2024/03/21 08:34:20;;;;;;;;;;;;;;;;;;4912530;29;20002;-86
2024/03/21 08:36:46;;;;;;;;;;;;;;;;;;4914429;29;19957;-87
2024/03/21 08:39:14;;;;;;;;;;;;;;;;;;4914707;29;20283;-86
2024/03/21 08:41:40;;;;;;;;;;;;;;;;;;4913849;29;19915;-86
2024/03/21 08:44:06;;;;;;;;;;;;;;;;;;4925034;29;19961;-86
2024/03/21 08:46:32;;;;;;;;;;;;;;;;;;4918283;29;20006;-86
2024/03/21 08:48:58;;;;;;;;;;;;;;;;;;4914512;29;19983;-86
2024/03/21 08:51:24;;;;;;;;;;;;;;;;;;4908537;29;20018;-86
2024/03/21 08:53:50;;;;;;;;;;;;;;;;;;4910096;29;20043;-86
2024/03/21 08:56:16;;;;;;;;;;;;;;;;;;4909246;29;19951;-87
2024/03/21 08:58:42;;;;;;;;;;;;;;;;;;4910087;29;19969;-86
2024/03/21 09:01:08;;;;;;;;;;;;;;;;;;4906314;29;19916;-87
2024/03/21 09:03:34;;;;;;;;;;;;;;;;;;4911984;29;20033;-85
2024/03/21 09:06:00;;;;;;;;;;;;;;;;;;4912503;29;19942;-85
2024/03/21 09:08:26;;;;;;;;;;;;;;;;;;4914333;29;19958;-86
2024/03/21 09:10:52;;;;;;;;;;;;;;;;;;4910728;29;19912;-87
2024/03/21 09:13:19;;;;;;;;;;;;;;;;;;4914103;29;19958;-87
2024/03/21 09:15:44;;;;;;;;;;;;;;;;;;4915025;29;19994;-86
2024/03/21 09:18:10;;;;;;;;;;;;;;;;;;4902779;29;20077;-87
2024/03/21 09:20:36;;;;;;;;;;;;;;;;;;4933314;29;19985;-86
2024/03/21 09:23:02;;;;;;;;;;;;;;;;;;4922919;29;19922;-85
2024/03/21 09:25:28;;;;;;;;;;;;;;;;;;4920100;29;19949;-86
2024/03/21 09:27:54;;;;;;;;;;;;;;;;;;4924417;29;19957;-86
2024/03/21 09:30:20;;;;;;;;;;;;;;;;;;4915614;29;19926;-86
2024/03/21 09:32:46;;;;;;;;;;;;;;;;;;4931439;29;20025;-86
2024/03/21 09:35:12;;;;;;;;;;;;;;;;;;4933243;29;20029;-86
2024/03/21 09:37:38;;;;;;;;;;;;;;;;;;4928510;29;20005;-85
2024/03/21 09:40:05;;;;;;;;;;;;;;;;;;4924256;29;20025;-86
2024/03/21 09:42:31;;;;;;;;;;;;;;;;;;4923491;29;19922;-85
2024/03/21 09:44:57;;;;;;;;;;;;;;;;;;4928132;29;20354;-85
2024/03/21 09:47:23;;;;;;;;;;;;;;;;;;4923949;29;20385;-86
2024/03/21 09:49:49;;;;;;;;;;;;;;;;;;4921412;29;19915;-86
2024/03/21 09:52:15;;;;;;;;;;;;;;;;;;4920376;29;19961;-85
2024/03/21 09:54:41;;;;;;;;;;;;;;;;;;4919853;29;20276;-85
2024/03/21 09:57:07;;;;;;;;;;;;;;;;;;4921816;29;19983;-86
2024/03/21 09:59:33;;;;;;;;;;;;;;;;;;4919332;29;19918;-85
2024/03/21 10:01:59;;;;;;;;;;;;;;;;;;4923160;29;19938;-85
2024/03/21 10:04:24;;;;;;;;;;;;;;;;;;4928066;29;20201;-86
2024/03/21 10:06:51;;;;;;;;;;;;;;;;;;4931722;29;20386;-86
2024/03/21 10:09:17;;;;;;;;;;;;;;;;;;4924939;29;20347;-86
2024/03/21 10:11:43;;;;;;;;;;;;;;;;;;4932104;29;19938;-86
2024/03/21 10:14:08;;;;;;;;;;;;;;;;;;4931560;29;19980;-85
2024/03/21 10:16:34;;;;;;;;;;;;;;;;;;4927317;29;20073;-85
2024/03/21 10:19:00;;;;;;;;;;;;;;;;;;4930738;29;19954;-85
2024/03/21 10:21:26;;;;;;;;;;;;;;;;;;4914184;29;19949;-86
2024/03/21 10:23:52;;;;;;;;;;;;;;;;;;4930364;29;20382;-86
2024/03/21 10:26:18;;;;;;;;;;;;;;;;;;4930400;29;19997;-86
2024/03/21 10:28:44;;;;;;;;;;;;;;;;;;4914086;29;20045;-85
2024/03/21 10:31:10;;;;;;;;;;;;;;;;;;4932389;29;19956;-87
2024/03/21 10:33:37;;;;;;;;;;;;;;;;;;4925400;29;19938;-87
2024/03/21 10:36:03;;;;;;;;;;;;;;;;;;4932018;29;20059;-88
2024/03/21 10:38:29;;;;;;;;;;;;;;;;;;4922832;29;20426;-89
2024/03/21 10:40:55;;;;;;;;;;;;;;;;;;4932711;29;21386;-88
2024/03/21 10:43:21;;;;;;;;;;;;;;;;;;4916779;29;19921;-88
2024/03/21 10:45:48;;;;;;;;;;;;;;;;;;4934123;29;20338;-89
2024/03/21 10:48:14;;;;;;;;;;;;;;;;;;4935284;29;19958;-88
2024/03/21 10:50:42;;;;;;;;;;;;;;;;;;4936686;29;19914;-88
2024/03/21 10:53:08;;;;;;;;;;;;;;;;;;4935720;29;19910;-88
2024/03/21 10:55:34;;;;;;;;;;;;;;;;;;4936984;29;19995;-88
2024/03/21 10:58:02;;;;;;;;;;;;;;;;;;4933861;29;19967;-89
2024/03/21 11:00:28;;;;;;;;;;;;;;;;;;4937140;29;19911;-88
2024/03/21 11:02:55;;;;;;;;;;;;;;;;;;4943078;29;19954;-89
2024/03/21 11:05:21;;;;;;;;;;;;;;;;;;4957739;28;20029;-87
2024/03/21 11:07:47;;;;;;;;;;;;;;;;;;4958096;28;19906;-87
2024/03/21 11:10:13;;;;;;;;;;;;;;;;;;4959141;28;20364;-88
2024/03/21 11:12:39;;;;;;;;;;;;;;;;;;4958124;28;19915;-87
2024/03/21 11:15:05;;;;;;;;;;;;;;;;;;4940923;29;19902;-87
2024/03/21 11:17:30;;;;;;;;;;;;;;;;;;4956707;28;19915;-87
2024/03/21 11:20:02;;;;;;;;;;;;;;;;;;4958480;28;20046;-88
2024/03/21 11:22:28;;;;;;;;;;;;;;;;;;4948222;29;19903;-87
2024/03/21 11:24:54;;;;;;;;;;;;;;;;;;4957048;28;19922;-87
2024/03/21 11:27:20;;;;;;;;;;;;;;;;;;4956368;28;19974;-90
2024/03/21 11:29:46;;;;;;;;;;;;;;;;;;4957752;28;19927;-88
2024/03/21 11:32:12;;;;;;;;;;;;;;;;;;4953450;29;19953;-90
2024/03/21 11:34:38;;;;;;;;;;;;;;;;;;4957807;28;19929;-90
2024/03/21 11:37:04;;;;;;;;;;;;;;;;;;4956602;28;19925;-91
2024/03/21 11:39:35;;;;;;;;;;;;;;;;;;4940486;29;19940;-89
2024/03/21 11:42:01;;;;;;;;;;;;;;;;;;4955419;28;19918;-91
2024/03/21 11:44:27;;;;;;;;;;;;;;;;;;4946181;28;19915;-88
2024/03/21 11:46:53;;;;;;;;;;;;;;;;;;4921861;29;19921;-91
2024/03/21 11:49:19;;;;;;;;;;;;;;;;;;4933389;29;19910;-88
2024/03/21 11:51:45;;;;;;;;;;;;;;;;;;4936641;29;19922;-90
2024/03/21 11:54:11;;;;;;;;;;;;;;;;;;4936542;29;19957;-87
2024/03/21 11:56:41;;;;;;;;;;;;;;;;;;4936166;29;19991;-88
2024/03/21 11:59:08;;;;;;;;;;;;;;;;;;4934298;29;19917;-84
2024/03/21 12:01:34;;;;;;;;;;;;;;;;;;4934508;29;19929;-86
2024/03/21 12:04:00;;;;;;;;;;;;;;;;;;4926479;29;19915;-86
2024/03/21 12:06:26;;;;;;;;;;;;;;;;;;4933591;29;19914;-86
2024/03/21 12:08:53;;;;;;;;;;;;;;;;;;4933271;29;19917;-86
2024/03/21 12:11:19;;;;;;;;;;;;;;;;;;4931803;29;19911;-87
2024/03/21 12:13:45;;;;;;;;;;;;;;;;;;4937324;29;19973;-86
2024/03/21 12:16:11;;;;;;;;;;;;;;;;;;4934456;29;19920;-86
2024/03/21 12:18:37;;;;;;;;;;;;;;;;;;4943477;29;20018;-90
2024/03/21 12:21:03;;;;;;;;;;;;;;;;;;4936479;29;19928;-90
2024/03/21 12:23:29;;;;;;;;;;;;;;;;;;4936681;29;20000;-89
2024/03/21 12:25:55;;;;;;;;;;;;;;;;;;4925613;29;19937;-89
2024/03/21 12:28:25;;;;;;;;;;;;;;;;;;4952665;29;19918;-89
2024/03/21 12:30:51;;;;;;;;;;;;;;;;;;4955149;29;19977;-88
2024/03/21 12:33:17;;;;;;;;;;;;;;;;;;4938827;29;19926;-89
2024/03/21 12:35:43;;;;;;;;;;;;;;;;;;4936321;29;19946;-83
2024/03/21 12:38:09;;;;;;;;;;;;;;;;;;4930955;29;19919;-82
2024/03/21 12:40:35;;;;;;;;;;;;;;;;;;4915671;29;19910;-82
2024/03/21 12:43:04;;;;;;;;;;;;;;;;;;4932037;29;20468;-82
2024/03/21 12:45:30;;;;;;;;;;;;;;;;;;4927982;29;20278;-82
2024/03/21 12:47:56;;;;;;;;;;;;;;;;;;4931863;29;19911;-83
2024/03/21 12:50:22;;;;;;;;;;;;;;;;;;4932832;29;19918;-85
2024/03/21 12:52:47;;;;;;;;;;;;;;;;;;4927374;29;19992;-84
2024/03/21 12:55:13;;;;;;;;;;;;;;;;;;4930471;29;20003;-85
2024/03/21 12:57:39;;;;;;;;;;;;;;;;;;4931045;29;19917;-84
2024/03/21 13:00:06;;;;;;;;;;;;;;;;;;4928762;29;19957;-84
2024/03/21 13:02:32;;;;;;;;;;;;;;;;;;4930106;29;19917;-86
2024/03/21 13:04:58;;;;;;;;;;;;;;;;;;4930961;29;19922;-85
2024/03/21 13:07:24;;;;;;;;;;;;;;;;;;4929084;29;20349;-83
2024/03/21 13:09:50;;;;;;;;;;;;;;;;;;4931296;29;19946;-83
2024/03/21 13:12:17;;;;;;;;;;;;;;;;;;4931494;29;19986;-82
2024/03/21 13:14:43;;;;;;;;;;;;;;;;;;4931862;29;19914;-83
2024/03/21 13:17:09;;;;;;;;;;;;;;;;;;4913749;29;20061;-83
2024/03/21 13:19:35;;;;;;;;;;;;;;;;;;4931895;29;20351;-83
2024/03/21 13:22:01;;;;;;;;;;;;;;;;;;4927147;29;19919;-83
2024/03/21 13:24:27;;;;;;;;;;;;;;;;;;4930152;29;20433;-82
2024/03/21 13:26:53;;;;;;;;;;;;;;;;;;4928661;29;19945;-82
2024/03/21 13:29:19;;;;;;;;;;;;;;;;;;4930221;29;19915;-83
2024/03/21 13:31:45;;;;;;;;;;;;;;;;;;4933439;29;19914;-83
2024/03/21 13:34:11;;;;;;;;;;;;;;;;;;4934529;29;19922;-83
2024/03/21 13:36:37;;;;;;;;;;;;;;;;;;4934972;29;20354;-83
2024/03/21 13:39:07;;;;;;;;;;;;;;;;;;4931825;29;20001;-84
2024/03/21 13:41:33;;;;;;;;;;;;;;;;;;4932384;29;19911;-83
2024/03/21 13:43:59;;;;;;;;;;;;;;;;;;4932902;29;19941;-83
2024/03/21 13:46:25;;;;;;;;;;;;;;;;;;4931715;29;19991;-83
2024/03/21 13:48:52;;;;;;;;;;;;;;;;;;4930059;29;19915;-83
2024/03/21 13:51:19;;;;;;;;;;;;;;;;;;4933501;29;19915;-84
2024/03/21 13:53:45;;;;;;;;;;;;;;;;;;4933081;29;19980;-82
2024/03/21 13:56:11;;;;;;;;;;;;;;;;;;4933921;29;19918;-83
2024/03/21 13:58:37;;;;;;;;;;;;;;;;;;4932910;29;20377;-82
2024/03/21 14:01:03;;;;;;;;;;;;;;;;;;4932529;29;20318;-81
2024/03/21 14:03:29;;;;;;;;;;;;;;;;;;4932145;29;20338;-82
2024/03/21 14:05:55;;;;;;;;;;;;;;;;;;4914589;29;20370;-82
2024/03/21 14:08:21;;;;;;;;;;;;;;;;;;4927981;29;20328;-82
2024/03/21 14:10:47;;;;;;;;;;;;;;;;;;4914921;29;20364;-82
2024/03/21 14:13:14;;;;;;;;;;;;;;;;;;4912881;29;19969;-82
2024/03/21 14:15:40;;;;;;;;;;;;;;;;;;4933063;29;19915;-78
2024/03/21 14:18:06;;;;;;;;;;;;;;;;;;4915490;29;19968;-85
2024/03/21 14:20:32;;;;;;;;;;;;;;;;;;4933699;29;19918;-84
2024/03/21 14:22:58;;;;;;;;;;;;;;;;;;4914319;29;20016;-85
2024/03/21 14:25:24;;;;;;;;;;;;;;;;;;4912542;29;20046;-87
2024/03/21 14:27:50;;;;;;;;;;;;;;;;;;4927074;29;19919;-86
2024/03/21 14:30:16;;;;;;;;;;;;;;;;;;4936247;29;19918;-87
2024/03/21 14:32:43;;;;;;;;;;;;;;;;;;4934337;29;19945;-86
2024/03/21 14:35:08;;;;;;;;;;;;;;;;;;4935119;29;20030;-83
2024/03/21 14:37:34;;;;;;;;;;;;;;;;;;4907538;29;20010;-83
2024/03/21 14:40:01;;;;;;;;;;;;;;;;;;4924033;29;19914;-81
2024/03/21 14:42:28;;;;;;;;;;;;;;;;;;4927628;29;20014;-83
2024/03/21 14:44:54;;;;;;;;;;;;;;;;;;4930208;29;19918;-83
2024/03/21 14:47:20;;;;;;;;;;;;;;;;;;4925512;29;20457;-83
2024/03/21 14:49:46;;;;;;;;;;;;;;;;;;4922125;29;20006;-83
2024/03/21 14:52:12;;;;;;;;;;;;;;;;;;4930316;29;19987;-82
2024/03/21 14:54:38;;;;;;;;;;;;;;;;;;4906992;29;19969;-82
2024/03/21 14:57:03;;;;;;;;;;;;;;;;;;4933581;29;19968;-83
2024/03/21 14:59:30;;;;;;;;;;;;;;;;;;4933807;29;20045;-80
2024/03/21 15:01:57;;;;;;;;;;;;;;;;;;4927397;29;19954;-81
2024/03/21 15:04:23;;;;;;;;;;;;;;;;;;4932378;29;19922;-80
2024/03/21 15:06:49;;;;;;;;;;;;;;;;;;4925425;29;19962;-80
2024/03/21 15:09:16;;;;;;;;;;;;;;;;;;4927976;29;19911;-80
2024/03/21 15:11:42;;;;;;;;;;;;;;;;;;4925228;29;19926;-80
2024/03/21 15:14:08;;;;;;;;;;;;;;;;;;4911638;29;19955;-80
2024/03/21 15:16:34;;;;;;;;;;;;;;;;;;4925088;29;19914;-80
2024/03/21 15:19:00;;;;;;;;;;;;;;;;;;4930732;29;20060;-81
2024/03/21 15:21:26;;;;;;;;;;;;;;;;;;4924384;29;19957;-82
2024/03/21 15:23:52;;;;;;;;;;;;;;;;;;4926613;29;19986;-80
2024/03/21 15:26:18;;;;;;;;;;;;;;;;;;4931017;29;19911;-82
2024/03/21 15:28:44;;;;;;;;;;;;;;;;;;4929620;29;20340;-81
2024/03/21 15:31:10;;;;;;;;;;;;;;;;;;4929676;29;19954;-81
2024/03/21 15:33:36;;;;;;;;;;;;;;;;;;4932792;29;20365;-81
2024/03/21 15:36:02;;;;;;;;;;;;;;;;;;4932931;29;19911;-81
2024/03/21 15:38:28;;;;;;;;;;;;;;;;;;4930196;29;19991;-81
2024/03/21 15:40:54;;;;;;;;;;;;;;;;;;4931788;29;20516;-80
2024/03/21 15:43:20;;;;;;;;;;;;;;;;;;4932883;29;19942;-80
2024/03/21 15:45:46;;;;;;;;;;;;;;;;;;4915710;29;19914;-81
2024/03/21 15:48:12;;;;;;;;;;;;;;;;;;4932562;29;19961;-84
2024/03/21 15:50:38;;;;;;;;;;;;;;;;;;4929622;29;20377;-84
2024/03/21 15:53:04;;;;;;;;;;;;;;;;;;4932162;29;20406;-84
2024/03/21 15:55:30;;;;;;;;;;;;;;;;;;4933245;29;19968;-85
2024/03/21 15:57:56;;;;;;;;;;;;;;;;;;4933674;29;19946;-84
2024/03/21 16:00:22;;;;;;;;;;;;;;;;;;4933388;29;20006;-84
2024/03/21 16:02:48;;;;;;;;;;;;;;;;;;4928438;29;20334;-84
2024/03/21 16:05:14;;;;;;;;;;;;;;;;;;4931168;29;19970;-84
2024/03/21 16:07:40;;;;;;;;;;;;;;;;;;4929560;29;20518;-83
2024/03/21 16:10:06;;;;;;;;;;;;;;;;;;4932977;29;19977;-83
2024/03/21 16:12:34;;;;;;;;;;;;;;;;;;4929009;29;19910;-83
2024/03/21 16:15:00;;;;;;;;;;;;;;;;;;4931977;29;19950;-83
2024/03/21 16:17:26;;;;;;;;;;;;;;;;;;4931065;29;19997;-82
2024/03/21 16:19:52;;;;;;;;;;;;;;;;;;4933438;29;20005;-82
2024/03/21 16:22:18;;;;;;;;;;;;;;;;;;4932410;29;19911;-84
2024/03/21 16:24:44;;;;;;;;;;;;;;;;;;4932220;29;20350;-83
2024/03/21 16:27:10;;;;;;;;;;;;;;;;;;4926619;29;20324;-84
2024/03/21 16:29:36;;;;;;;;;;;;;;;;;;4932383;29;20264;-83
2024/03/21 16:32:02;;;;;;;;;;;;;;;;;;4931088;29;19910;-83
2024/03/21 16:34:28;;;;;;;;;;;;;;;;;;4932209;29;19915;-83
2024/03/21 16:36:55;;;;;;;;;;;;;;;;;;4930153;29;20414;-83
2024/03/21 16:39:20;;;;;;;;;;;;;;;;;;4926319;29;20014;-84
2024/03/21 16:41:46;;;;;;;;;;;;;;;;;;4932890;29;19981;-85
2024/03/21 16:44:12;;;;;;;;;;;;;;;;;;4914939;29;20374;-83
2024/03/21 16:46:38;;;;;;;;;;;;;;;;;;4936947;29;20303;-83